sensor_id;sensor_type;location;lat;lon;timestamp;P1;durP1;ratioP1;P2;durP2;ratioP2
5539;SDS011;2792;52.452;9.752;2023-07-22T00:00:53;10.23;;;5.60;;
5539;SDS011;2792;52.452;9.752;2023-07-22T00:03:20;7.07;;;5.23;;
5539;SDS011;2792;52.452;9.752;2023-07-22T00:05:47;7.37;;;5.50;;
5539;SDS011;2792;52.452;9.752;2023-07-22T00:08:15;7.23;;;5.80;;
5539;SDS011;2792;52.452;9.752;2023-07-22T00:10:41;10.70;;;6.30;;
5539;SDS011;2792;52.452;9.752;2023-07-22T00:13:09;9.00;;;5.63;;
5539;SDS011;2792;52.452;9.752;2023-07-22T00:15:36;7.47;;;5.33;;
5539;SDS011;2792;52.452;9.752;2023-07-22T00:18:02;9.47;;;6.00;;
5539;SDS011;2792;52.452;9.752;2023-07-22T00:20:29;8.07;;;5.30;;
5539;SDS011;2792;52.452;9.752;2023-07-22T00:22:55;8.37;;;5.80;;
5539;SDS011;2792;52.452;9.752;2023-07-22T00:25:23;8.10;;;6.00;;
5539;SDS011;2792;52.452;9.752;2023-07-22T00:27:49;9.77;;;6.23;;
5539;SDS011;2792;52.452;9.752;2023-07-22T00:30:17;10.47;;;6.10;;
5539;SDS011;2792;52.452;9.752;2023-07-22T00:32:44;11.70;;;5.57;;
5539;SDS011;2792;52.452;9.752;2023-07-22T00:35:10;7.70;;;5.80;;
5539;SDS011;2792;52.452;9.752;2023-07-22T00:37:37;9.03;;;5.93;;
5539;SDS011;2792;52.452;9.752;2023-07-22T00:40:04;9.37;;;6.03;;
5539;SDS011;2792;52.452;9.752;2023-07-22T00:42:36;10.73;;;5.70;;
5539;SDS011;2792;52.452;9.752;2023-07-22T00:45:03;9.43;;;6.03;;
5539;SDS011;2792;52.452;9.752;2023-07-22T00:47:32;9.80;;;6.07;;
5539;SDS011;2792;52.452;9.752;2023-07-22T00:49:59;11.67;;;6.13;;
5539;SDS011;2792;52.452;9.752;2023-07-22T00:52:26;7.77;;;5.80;;
5539;SDS011;2792;52.452;9.752;2023-07-22T00:54:52;10.40;;;6.17;;
5539;SDS011;2792;52.452;9.752;2023-07-22T00:57:19;9.23;;;6.37;;
5539;SDS011;2792;52.452;9.752;2023-07-22T00:59:46;9.43;;;6.10;;
5539;SDS011;2792;52.452;9.752;2023-07-22T01:02:13;9.47;;;5.93;;
5539;SDS011;2792;52.452;9.752;2023-07-22T01:04:41;10.43;;;6.10;;
5539;SDS011;2792;52.452;9.752;2023-07-22T01:07:08;7.37;;;5.33;;
5539;SDS011;2792;52.452;9.752;2023-07-22T01:09:35;10.73;;;6.27;;
5539;SDS011;2792;52.452;9.752;2023-07-22T01:12:03;10.00;;;5.90;;
5539;SDS011;2792;52.452;9.752;2023-07-22T01:14:31;10.57;;;6.37;;
5539;SDS011;2792;52.452;9.752;2023-07-22T01:16:57;9.20;;;6.40;;
5539;SDS011;2792;52.452;9.752;2023-07-22T01:19:24;7.77;;;5.67;;
5539;SDS011;2792;52.452;9.752;2023-07-22T01:21:52;9.43;;;6.37;;
5539;SDS011;2792;52.452;9.752;2023-07-22T01:24:20;12.80;;;7.00;;
5539;SDS011;2792;52.452;9.752;2023-07-22T01:26:47;9.77;;;5.57;;
5539;SDS011;2792;52.452;9.752;2023-07-22T01:29:14;10.40;;;6.30;;
5539;SDS011;2792;52.452;9.752;2023-07-22T01:31:40;13.87;;;6.03;;
5539;SDS011;2792;52.452;9.752;2023-07-22T01:34:07;10.67;;;6.63;;
5539;SDS011;2792;52.452;9.752;2023-07-22T01:36:33;12.90;;;7.40;;
5539;SDS011;2792;52.452;9.752;2023-07-22T01:39:00;7.73;;;6.00;;
5539;SDS011;2792;52.452;9.752;2023-07-22T01:41:28;7.20;;;5.67;;
5539;SDS011;2792;52.452;9.752;2023-07-22T01:43:54;9.83;;;6.37;;
5539;SDS011;2792;52.452;9.752;2023-07-22T01:46:21;11.80;;;6.70;;
5539;SDS011;2792;52.452;9.752;2023-07-22T01:48:47;9.20;;;6.73;;
5539;SDS011;2792;52.452;9.752;2023-07-22T01:51:14;10.70;;;5.30;;
5539;SDS011;2792;52.452;9.752;2023-07-22T01:53:40;9.70;;;5.90;;
5539;SDS011;2792;52.452;9.752;2023-07-22T01:56:06;9.60;;;6.10;;
5539;SDS011;2792;52.452;9.752;2023-07-22T01:58:35;9.63;;;6.10;;
5539;SDS011;2792;52.452;9.752;2023-07-22T02:01:01;9.07;;;6.20;;
5539;SDS011;2792;52.452;9.752;2023-07-22T02:03:28;11.33;;;6.43;;
5539;SDS011;2792;52.452;9.752;2023-07-22T02:06:00;10.03;;;6.27;;
5539;SDS011;2792;52.452;9.752;2023-07-22T02:08:27;9.93;;;6.00;;
5539;SDS011;2792;52.452;9.752;2023-07-22T02:10:54;10.37;;;6.53;;
5539;SDS011;2792;52.452;9.752;2023-07-22T02:13:20;9.97;;;6.40;;
5539;SDS011;2792;52.452;9.752;2023-07-22T02:15:48;8.83;;;5.63;;
5539;SDS011;2792;52.452;9.752;2023-07-22T02:18:15;9.10;;;6.27;;
5539;SDS011;2792;52.452;9.752;2023-07-22T02:20:42;8.90;;;5.63;;
5539;SDS011;2792;52.452;9.752;2023-07-22T02:23:08;7.80;;;6.00;;
5539;SDS011;2792;52.452;9.752;2023-07-22T02:25:35;12.70;;;6.20;;
5539;SDS011;2792;52.452;9.752;2023-07-22T02:28:02;10.83;;;6.13;;
5539;SDS011;2792;52.452;9.752;2023-07-22T02:30:28;9.90;;;6.00;;
5539;SDS011;2792;52.452;9.752;2023-07-22T02:32:56;11.83;;;6.57;;
5539;SDS011;2792;52.452;9.752;2023-07-22T02:35:23;9.20;;;5.70;;
5539;SDS011;2792;52.452;9.752;2023-07-22T02:37:49;11.97;;;6.80;;
5539;SDS011;2792;52.452;9.752;2023-07-22T02:40:16;13.57;;;7.20;;
5539;SDS011;2792;52.452;9.752;2023-07-22T02:42:43;10.20;;;6.00;;
5539;SDS011;2792;52.452;9.752;2023-07-22T02:45:09;13.40;;;7.10;;
5539;SDS011;2792;52.452;9.752;2023-07-22T02:47:37;11.97;;;5.90;;
5539;SDS011;2792;52.452;9.752;2023-07-22T02:50:06;9.93;;;5.67;;
5539;SDS011;2792;52.452;9.752;2023-07-22T02:52:33;9.80;;;6.23;;
5539;SDS011;2792;52.452;9.752;2023-07-22T02:55:05;12.80;;;5.70;;
5539;SDS011;2792;52.452;9.752;2023-07-22T02:57:33;11.10;;;5.93;;
5539;SDS011;2792;52.452;9.752;2023-07-22T02:59:59;10.63;;;5.80;;
5539;SDS011;2792;52.452;9.752;2023-07-22T03:02:30;15.37;;;6.53;;
5539;SDS011;2792;52.452;9.752;2023-07-22T03:04:56;9.97;;;6.33;;
5539;SDS011;2792;52.452;9.752;2023-07-22T03:07:24;10.43;;;5.63;;
5539;SDS011;2792;52.452;9.752;2023-07-22T03:09:51;10.23;;;6.33;;
5539;SDS011;2792;52.452;9.752;2023-07-22T03:12:18;11.50;;;5.93;;
5539;SDS011;2792;52.452;9.752;2023-07-22T03:14:44;8.83;;;5.90;;
5539;SDS011;2792;52.452;9.752;2023-07-22T03:17:11;11.47;;;6.00;;
5539;SDS011;2792;52.452;9.752;2023-07-22T03:19:39;15.47;;;6.60;;
5539;SDS011;2792;52.452;9.752;2023-07-22T03:22:05;12.80;;;6.30;;
5539;SDS011;2792;52.452;9.752;2023-07-22T03:24:33;13.10;;;6.60;;
5539;SDS011;2792;52.452;9.752;2023-07-22T03:27:00;10.93;;;6.30;;
5539;SDS011;2792;52.452;9.752;2023-07-22T03:29:27;11.13;;;6.27;;
5539;SDS011;2792;52.452;9.752;2023-07-22T03:31:53;11.13;;;6.03;;
5539;SDS011;2792;52.452;9.752;2023-07-22T03:34:22;9.80;;;5.50;;
5539;SDS011;2792;52.452;9.752;2023-07-22T03:36:49;10.37;;;5.37;;
5539;SDS011;2792;52.452;9.752;2023-07-22T03:39:15;13.27;;;6.63;;
5539;SDS011;2792;52.452;9.752;2023-07-22T03:41:43;10.07;;;6.40;;
5539;SDS011;2792;52.452;9.752;2023-07-22T03:44:09;9.83;;;6.57;;
5539;SDS011;2792;52.452;9.752;2023-07-22T03:46:36;12.27;;;6.60;;
5539;SDS011;2792;52.452;9.752;2023-07-22T03:49:03;13.90;;;7.80;;
5539;SDS011;2792;52.452;9.752;2023-07-22T03:51:29;12.90;;;7.17;;
5539;SDS011;2792;52.452;9.752;2023-07-22T03:53:57;9.53;;;5.87;;
5539;SDS011;2792;52.452;9.752;2023-07-22T03:56:23;10.13;;;6.30;;
5539;SDS011;2792;52.452;9.752;2023-07-22T03:58:51;9.90;;;6.23;;
5539;SDS011;2792;52.452;9.752;2023-07-22T04:01:19;11.57;;;6.33;;
5539;SDS011;2792;52.452;9.752;2023-07-22T04:03:45;10.93;;;5.47;;
5539;SDS011;2792;52.452;9.752;2023-07-22T04:06:12;9.80;;;6.23;;
5539;SDS011;2792;52.452;9.752;2023-07-22T04:08:39;12.20;;;6.70;;
5539;SDS011;2792;52.452;9.752;2023-07-22T04:11:05;9.60;;;5.83;;
5539;SDS011;2792;52.452;9.752;2023-07-22T04:13:32;9.57;;;6.13;;
5539;SDS011;2792;52.452;9.752;2023-07-22T04:15:59;10.03;;;5.83;;
5539;SDS011;2792;52.452;9.752;2023-07-22T04:18:26;11.77;;;5.97;;
5539;SDS011;2792;52.452;9.752;2023-07-22T04:20:58;10.60;;;5.90;;
5539;SDS011;2792;52.452;9.752;2023-07-22T04:23:24;8.10;;;5.47;;
5539;SDS011;2792;52.452;9.752;2023-07-22T04:25:51;11.63;;;6.30;;
5539;SDS011;2792;52.452;9.752;2023-07-22T04:28:18;9.87;;;5.57;;
5539;SDS011;2792;52.452;9.752;2023-07-22T04:30:54;12.23;;;5.67;;
5539;SDS011;2792;52.452;9.752;2023-07-22T04:33:22;9.90;;;5.80;;
5539;SDS011;2792;52.452;9.752;2023-07-22T04:35:48;10.50;;;5.50;;
5539;SDS011;2792;52.452;9.752;2023-07-22T04:38:16;10.50;;;5.87;;
5539;SDS011;2792;52.452;9.752;2023-07-22T04:40:42;7.17;;;5.30;;
5539;SDS011;2792;52.452;9.752;2023-07-22T04:43:09;16.60;;;6.07;;
5539;SDS011;2792;52.452;9.752;2023-07-22T04:45:37;13.90;;;5.90;;
5539;SDS011;2792;52.452;9.752;2023-07-22T04:48:05;9.80;;;5.63;;
5539;SDS011;2792;52.452;9.752;2023-07-22T04:50:33;11.80;;;6.07;;
5539;SDS011;2792;52.452;9.752;2023-07-22T04:53:00;14.03;;;5.80;;
5539;SDS011;2792;52.452;9.752;2023-07-22T04:55:26;11.03;;;5.87;;
5539;SDS011;2792;52.452;9.752;2023-07-22T04:57:54;7.73;;;4.63;;
5539;SDS011;2792;52.452;9.752;2023-07-22T05:00:21;8.37;;;4.97;;
5539;SDS011;2792;52.452;9.752;2023-07-22T05:02:48;11.17;;;6.10;;
5539;SDS011;2792;52.452;9.752;2023-07-22T05:05:17;10.53;;;5.70;;
5539;SDS011;2792;52.452;9.752;2023-07-22T05:07:45;9.70;;;4.70;;
5539;SDS011;2792;52.452;9.752;2023-07-22T05:10:13;13.13;;;5.30;;
5539;SDS011;2792;52.452;9.752;2023-07-22T05:12:40;11.73;;;6.17;;
5539;SDS011;2792;52.452;9.752;2023-07-22T05:15:07;8.33;;;5.43;;
5539;SDS011;2792;52.452;9.752;2023-07-22T05:17:35;8.33;;;5.20;;
5539;SDS011;2792;52.452;9.752;2023-07-22T05:20:02;10.33;;;6.70;;
5539;SDS011;2792;52.452;9.752;2023-07-22T05:22:31;9.60;;;5.17;;
5539;SDS011;2792;52.452;9.752;2023-07-22T05:24:59;9.80;;;6.37;;
5539;SDS011;2792;52.452;9.752;2023-07-22T05:27:25;12.33;;;5.93;;
5539;SDS011;2792;52.452;9.752;2023-07-22T05:29:52;8.97;;;6.10;;
5539;SDS011;2792;52.452;9.752;2023-07-22T05:32:18;7.20;;;5.07;;
5539;SDS011;2792;52.452;9.752;2023-07-22T05:34:45;8.60;;;5.40;;
5539;SDS011;2792;52.452;9.752;2023-07-22T05:37:11;9.10;;;5.20;;
5539;SDS011;2792;52.452;9.752;2023-07-22T05:39:38;10.03;;;5.60;;
5539;SDS011;2792;52.452;9.752;2023-07-22T05:42:06;11.50;;;6.50;;
5539;SDS011;2792;52.452;9.752;2023-07-22T05:44:32;10.10;;;6.00;;
5539;SDS011;2792;52.452;9.752;2023-07-22T05:46:59;7.87;;;4.87;;
5539;SDS011;2792;52.452;9.752;2023-07-22T05:49:25;9.37;;;5.60;;
5539;SDS011;2792;52.452;9.752;2023-07-22T05:51:52;9.40;;;5.90;;
5539;SDS011;2792;52.452;9.752;2023-07-22T05:54:17;11.23;;;6.17;;
5539;SDS011;2792;52.452;9.752;2023-07-22T05:56:44;8.53;;;5.53;;
5539;SDS011;2792;52.452;9.752;2023-07-22T05:59:12;9.50;;;5.80;;
5539;SDS011;2792;52.452;9.752;2023-07-22T06:01:38;8.30;;;6.00;;
5539;SDS011;2792;52.452;9.752;2023-07-22T06:04:05;7.30;;;5.00;;
5539;SDS011;2792;52.452;9.752;2023-07-22T06:06:32;9.90;;;5.30;;
5539;SDS011;2792;52.452;9.752;2023-07-22T06:08:59;11.90;;;6.33;;
5539;SDS011;2792;52.452;9.752;2023-07-22T06:11:25;12.20;;;6.27;;
5539;SDS011;2792;52.452;9.752;2023-07-22T06:13:53;9.07;;;5.97;;
5539;SDS011;2792;52.452;9.752;2023-07-22T06:16:21;9.13;;;6.10;;
5539;SDS011;2792;52.452;9.752;2023-07-22T06:18:48;10.03;;;6.00;;
5539;SDS011;2792;52.452;9.752;2023-07-22T06:21:14;7.33;;;5.20;;
5539;SDS011;2792;52.452;9.752;2023-07-22T06:23:41;13.47;;;5.87;;
5539;SDS011;2792;52.452;9.752;2023-07-22T06:26:07;7.17;;;4.47;;
5539;SDS011;2792;52.452;9.752;2023-07-22T06:28:34;9.13;;;5.57;;
5539;SDS011;2792;52.452;9.752;2023-07-22T06:31:00;7.33;;;4.87;;
5539;SDS011;2792;52.452;9.752;2023-07-22T06:33:28;10.90;;;5.60;;
5539;SDS011;2792;52.452;9.752;2023-07-22T06:35:55;8.60;;;5.40;;
5539;SDS011;2792;52.452;9.752;2023-07-22T06:38:21;5.97;;;4.43;;
5539;SDS011;2792;52.452;9.752;2023-07-22T06:40:48;12.03;;;5.27;;
5539;SDS011;2792;52.452;9.752;2023-07-22T06:43:15;10.13;;;6.00;;
5539;SDS011;2792;52.452;9.752;2023-07-22T06:45:41;8.27;;;4.97;;
5539;SDS011;2792;52.452;9.752;2023-07-22T06:48:08;9.67;;;5.47;;
5539;SDS011;2792;52.452;9.752;2023-07-22T06:50:36;6.17;;;4.17;;
5539;SDS011;2792;52.452;9.752;2023-07-22T06:53:02;8.50;;;5.70;;
5539;SDS011;2792;52.452;9.752;2023-07-22T06:55:29;7.10;;;5.50;;
5539;SDS011;2792;52.452;9.752;2023-07-22T06:57:56;8.53;;;5.53;;
5539;SDS011;2792;52.452;9.752;2023-07-22T07:00:22;8.37;;;5.67;;
5539;SDS011;2792;52.452;9.752;2023-07-22T07:02:49;7.50;;;5.07;;
5539;SDS011;2792;52.452;9.752;2023-07-22T07:05:16;11.57;;;5.30;;
5539;SDS011;2792;52.452;9.752;2023-07-22T07:07:44;7.80;;;5.10;;
5539;SDS011;2792;52.452;9.752;2023-07-22T07:10:10;7.07;;;5.27;;
5539;SDS011;2792;52.452;9.752;2023-07-22T07:12:37;9.03;;;5.00;;
5539;SDS011;2792;52.452;9.752;2023-07-22T07:15:04;7.27;;;5.20;;
5539;SDS011;2792;52.452;9.752;2023-07-22T07:17:31;8.63;;;4.70;;
5539;SDS011;2792;52.452;9.752;2023-07-22T07:20:00;7.97;;;5.20;;
5539;SDS011;2792;52.452;9.752;2023-07-22T07:22:27;7.43;;;4.83;;
5539;SDS011;2792;52.452;9.752;2023-07-22T07:24:55;8.70;;;4.73;;
5539;SDS011;2792;52.452;9.752;2023-07-22T07:27:21;9.13;;;4.50;;
5539;SDS011;2792;52.452;9.752;2023-07-22T07:29:47;6.70;;;4.87;;
5539;SDS011;2792;52.452;9.752;2023-07-22T07:32:14;9.13;;;5.13;;
5539;SDS011;2792;52.452;9.752;2023-07-22T07:34:41;8.70;;;5.37;;
5539;SDS011;2792;52.452;9.752;2023-07-22T07:37:07;7.83;;;5.37;;
5539;SDS011;2792;52.452;9.752;2023-07-22T07:39:33;5.70;;;4.90;;
5539;SDS011;2792;52.452;9.752;2023-07-22T07:42:01;7.53;;;4.83;;
5539;SDS011;2792;52.452;9.752;2023-07-22T07:44:28;6.10;;;4.47;;
5539;SDS011;2792;52.452;9.752;2023-07-22T07:46:54;6.40;;;4.87;;
5539;SDS011;2792;52.452;9.752;2023-07-22T07:49:21;8.60;;;5.43;;
5539;SDS011;2792;52.452;9.752;2023-07-22T07:51:48;8.17;;;5.13;;
5539;SDS011;2792;52.452;9.752;2023-07-22T07:54:14;8.50;;;5.60;;
5539;SDS011;2792;52.452;9.752;2023-07-22T07:56:40;6.27;;;4.73;;
5539;SDS011;2792;52.452;9.752;2023-07-22T07:59:08;6.37;;;4.90;;
5539;SDS011;2792;52.452;9.752;2023-07-22T08:01:35;8.10;;;5.13;;
5539;SDS011;2792;52.452;9.752;2023-07-22T08:04:06;6.37;;;4.83;;
5539;SDS011;2792;52.452;9.752;2023-07-22T08:06:33;7.97;;;4.87;;
5539;SDS011;2792;52.452;9.752;2023-07-22T08:08:59;6.03;;;4.53;;
5539;SDS011;2792;52.452;9.752;2023-07-22T08:11:26;7.63;;;5.00;;
5539;SDS011;2792;52.452;9.752;2023-07-22T08:13:52;6.47;;;5.03;;
5539;SDS011;2792;52.452;9.752;2023-07-22T08:16:21;7.93;;;4.97;;
5539;SDS011;2792;52.452;9.752;2023-07-22T08:18:49;8.57;;;5.57;;
5539;SDS011;2792;52.452;9.752;2023-07-22T08:21:16;7.20;;;4.60;;
5539;SDS011;2792;52.452;9.752;2023-07-22T08:23:42;8.80;;;5.00;;
5539;SDS011;2792;52.452;9.752;2023-07-22T08:26:10;7.67;;;4.90;;
5539;SDS011;2792;52.452;9.752;2023-07-22T08:28:37;9.53;;;5.40;;
5539;SDS011;2792;52.452;9.752;2023-07-22T08:31:04;6.63;;;5.30;;
5539;SDS011;2792;52.452;9.752;2023-07-22T08:33:31;9.77;;;6.27;;
5539;SDS011;2792;52.452;9.752;2023-07-22T08:35:58;11.27;;;5.80;;
5539;SDS011;2792;52.452;9.752;2023-07-22T08:38:25;8.60;;;5.10;;
5539;SDS011;2792;52.452;9.752;2023-07-22T08:40:52;6.70;;;4.50;;
5539;SDS011;2792;52.452;9.752;2023-07-22T08:43:19;8.50;;;5.30;;
5539;SDS011;2792;52.452;9.752;2023-07-22T08:45:47;8.33;;;4.90;;
5539;SDS011;2792;52.452;9.752;2023-07-22T08:48:15;9.83;;;5.03;;
5539;SDS011;2792;52.452;9.752;2023-07-22T08:50:45;6.53;;;4.80;;
5539;SDS011;2792;52.452;9.752;2023-07-22T08:53:13;9.37;;;5.50;;
5539;SDS011;2792;52.452;9.752;2023-07-22T08:55:41;9.07;;;5.40;;
5539;SDS011;2792;52.452;9.752;2023-07-22T08:58:08;8.20;;;5.43;;
5539;SDS011;2792;52.452;9.752;2023-07-22T09:00:35;6.23;;;4.60;;
5539;SDS011;2792;52.452;9.752;2023-07-22T09:03:02;10.33;;;5.10;;
5539;SDS011;2792;52.452;9.752;2023-07-22T09:05:30;11.60;;;5.77;;
5539;SDS011;2792;52.452;9.752;2023-07-22T09:07:59;7.33;;;4.70;;
5539;SDS011;2792;52.452;9.752;2023-07-22T09:10:27;8.10;;;4.67;;
5539;SDS011;2792;52.452;9.752;2023-07-22T09:12:54;6.10;;;5.20;;
5539;SDS011;2792;52.452;9.752;2023-07-22T09:15:21;7.63;;;5.40;;
5539;SDS011;2792;52.452;9.752;2023-07-22T09:17:49;12.47;;;5.90;;
5539;SDS011;2792;52.452;9.752;2023-07-22T09:20:15;8.30;;;6.00;;
5539;SDS011;2792;52.452;9.752;2023-07-22T09:22:43;9.30;;;5.90;;
5539;SDS011;2792;52.452;9.752;2023-07-22T09:25:15;12.03;;;4.90;;
5539;SDS011;2792;52.452;9.752;2023-07-22T09:27:43;6.43;;;4.93;;
5539;SDS011;2792;52.452;9.752;2023-07-22T09:30:23;6.97;;;5.20;;
5539;SDS011;2792;52.452;9.752;2023-07-22T09:32:51;10.00;;;5.50;;
5539;SDS011;2792;52.452;9.752;2023-07-22T09:35:18;9.30;;;5.40;;
5539;SDS011;2792;52.452;9.752;2023-07-22T09:37:44;6.93;;;5.03;;
5539;SDS011;2792;52.452;9.752;2023-07-22T09:40:16;8.63;;;5.40;;
5539;SDS011;2792;52.452;9.752;2023-07-22T09:42:45;7.60;;;6.00;;
5539;SDS011;2792;52.452;9.752;2023-07-22T09:45:12;13.13;;;6.57;;
5539;SDS011;2792;52.452;9.752;2023-07-22T09:47:41;10.40;;;6.87;;
5539;SDS011;2792;52.452;9.752;2023-07-22T09:50:13;7.60;;;5.60;;
5539;SDS011;2792;52.452;9.752;2023-07-22T09:52:42;10.33;;;6.50;;
5539;SDS011;2792;52.452;9.752;2023-07-22T09:55:10;6.90;;;5.00;;
5539;SDS011;2792;52.452;9.752;2023-07-22T09:57:39;7.70;;;5.50;;
5539;SDS011;2792;52.452;9.752;2023-07-22T10:00:10;7.97;;;6.50;;
5539;SDS011;2792;52.452;9.752;2023-07-22T10:02:37;7.47;;;5.70;;
5539;SDS011;2792;52.452;9.752;2023-07-22T10:05:06;9.37;;;5.80;;
5539;SDS011;2792;52.452;9.752;2023-07-22T10:07:35;8.97;;;6.27;;
5539;SDS011;2792;52.452;9.752;2023-07-22T10:10:03;8.83;;;6.00;;
5539;SDS011;2792;52.452;9.752;2023-07-22T10:12:30;8.47;;;6.40;;
5539;SDS011;2792;52.452;9.752;2023-07-22T10:14:59;19.10;;;7.00;;
5539;SDS011;2792;52.452;9.752;2023-07-22T10:17:27;8.13;;;5.00;;
5539;SDS011;2792;52.452;9.752;2023-07-22T10:19:54;6.30;;;5.37;;
5539;SDS011;2792;52.452;9.752;2023-07-22T10:22:21;5.53;;;4.90;;
5539;SDS011;2792;52.452;9.752;2023-07-22T10:24:48;8.70;;;4.27;;
5539;SDS011;2792;52.452;9.752;2023-07-22T10:27:15;6.97;;;5.03;;
5539;SDS011;2792;52.452;9.752;2023-07-22T10:29:43;12.53;;;5.00;;
5539;SDS011;2792;52.452;9.752;2023-07-22T10:32:13;9.73;;;5.20;;
5539;SDS011;2792;52.452;9.752;2023-07-22T10:34:40;10.37;;;5.87;;
5539;SDS011;2792;52.452;9.752;2023-07-22T10:37:08;6.17;;;4.87;;
5539;SDS011;2792;52.452;9.752;2023-07-22T10:39:36;5.13;;;4.60;;
5539;SDS011;2792;52.452;9.752;2023-07-22T10:42:02;9.60;;;4.00;;
5539;SDS011;2792;52.452;9.752;2023-07-22T10:44:30;6.10;;;4.67;;
5539;SDS011;2792;52.452;9.752;2023-07-22T10:46:58;6.80;;;4.97;;
5539;SDS011;2792;52.452;9.752;2023-07-22T10:49:38;4.50;;;4.03;;
5539;SDS011;2792;52.452;9.752;2023-07-22T10:52:09;5.87;;;4.50;;
5539;SDS011;2792;52.452;9.752;2023-07-22T10:54:37;7.53;;;4.97;;
5539;SDS011;2792;52.452;9.752;2023-07-22T10:57:03;6.27;;;5.30;;
5539;SDS011;2792;52.452;9.752;2023-07-22T10:59:32;6.33;;;4.77;;
5539;SDS011;2792;52.452;9.752;2023-07-22T11:01:59;7.00;;;5.30;;
5539;SDS011;2792;52.452;9.752;2023-07-22T11:04:26;6.83;;;4.93;;
5539;SDS011;2792;52.452;9.752;2023-07-22T11:07:02;8.30;;;5.37;;
5539;SDS011;2792;52.452;9.752;2023-07-22T11:09:37;7.70;;;4.47;;
5539;SDS011;2792;52.452;9.752;2023-07-22T11:12:04;6.60;;;4.70;;
5539;SDS011;2792;52.452;9.752;2023-07-22T11:14:33;12.07;;;5.27;;
5539;SDS011;2792;52.452;9.752;2023-07-22T11:17:00;5.63;;;4.60;;
5539;SDS011;2792;52.452;9.752;2023-07-22T11:19:29;5.97;;;4.40;;
5539;SDS011;2792;52.452;9.752;2023-07-22T11:21:56;5.07;;;4.40;;
5539;SDS011;2792;52.452;9.752;2023-07-22T11:24:24;9.67;;;4.70;;
5539;SDS011;2792;52.452;9.752;2023-07-22T11:26:51;7.40;;;5.60;;
5539;SDS011;2792;52.452;9.752;2023-07-22T11:29:18;7.47;;;4.57;;
5539;SDS011;2792;52.452;9.752;2023-07-22T11:31:44;5.47;;;4.97;;
5539;SDS011;2792;52.452;9.752;2023-07-22T11:34:12;6.77;;;5.20;;
5539;SDS011;2792;52.452;9.752;2023-07-22T11:36:40;6.97;;;4.13;;
5539;SDS011;2792;52.452;9.752;2023-07-22T11:39:07;5.83;;;4.80;;
5539;SDS011;2792;52.452;9.752;2023-07-22T11:41:36;9.50;;;4.73;;
5539;SDS011;2792;52.452;9.752;2023-07-22T11:44:04;9.40;;;4.47;;
5539;SDS011;2792;52.452;9.752;2023-07-22T11:46:34;5.73;;;4.10;;
5539;SDS011;2792;52.452;9.752;2023-07-22T11:49:01;6.47;;;5.10;;
5539;SDS011;2792;52.452;9.752;2023-07-22T11:51:28;5.10;;;4.60;;
5539;SDS011;2792;52.452;9.752;2023-07-22T11:53:55;6.07;;;4.23;;
5539;SDS011;2792;52.452;9.752;2023-07-22T11:56:22;7.80;;;4.00;;
5539;SDS011;2792;52.452;9.752;2023-07-22T11:58:51;5.10;;;4.30;;
5539;SDS011;2792;52.452;9.752;2023-07-22T12:01:19;4.80;;;3.70;;
5539;SDS011;2792;52.452;9.752;2023-07-22T12:03:45;5.60;;;4.70;;
5539;SDS011;2792;52.452;9.752;2023-07-22T12:06:12;5.43;;;3.93;;
5539;SDS011;2792;52.452;9.752;2023-07-22T12:08:43;4.17;;;3.73;;
5539;SDS011;2792;52.452;9.752;2023-07-22T12:11:15;10.47;;;4.50;;
5539;SDS011;2792;52.452;9.752;2023-07-22T12:13:43;6.63;;;4.50;;
5539;SDS011;2792;52.452;9.752;2023-07-22T12:16:12;7.60;;;5.00;;
5539;SDS011;2792;52.452;9.752;2023-07-22T12:18:43;6.80;;;5.27;;
5539;SDS011;2792;52.452;9.752;2023-07-22T12:21:10;6.23;;;4.00;;
5539;SDS011;2792;52.452;9.752;2023-07-22T12:23:37;5.10;;;4.23;;
5539;SDS011;2792;52.452;9.752;2023-07-22T12:26:03;9.00;;;4.67;;
5539;SDS011;2792;52.452;9.752;2023-07-22T12:28:30;8.27;;;5.27;;
5539;SDS011;2792;52.452;9.752;2023-07-22T12:30:56;7.83;;;4.90;;
5539;SDS011;2792;52.452;9.752;2023-07-22T12:33:25;8.40;;;5.00;;
5539;SDS011;2792;52.452;9.752;2023-07-22T12:35:52;5.70;;;4.20;;
5539;SDS011;2792;52.452;9.752;2023-07-22T12:38:19;6.20;;;5.23;;
5539;SDS011;2792;52.452;9.752;2023-07-22T12:40:46;6.87;;;4.90;;
5539;SDS011;2792;52.452;9.752;2023-07-22T12:43:12;7.50;;;5.17;;
5539;SDS011;2792;52.452;9.752;2023-07-22T12:45:39;9.70;;;5.73;;
5539;SDS011;2792;52.452;9.752;2023-07-22T12:48:05;7.60;;;5.03;;
5539;SDS011;2792;52.452;9.752;2023-07-22T12:50:33;7.30;;;5.07;;
5539;SDS011;2792;52.452;9.752;2023-07-22T12:53:00;9.80;;;5.50;;
5539;SDS011;2792;52.452;9.752;2023-07-22T12:55:27;11.40;;;4.67;;
5539;SDS011;2792;52.452;9.752;2023-07-22T12:57:53;6.20;;;4.47;;
5539;SDS011;2792;52.452;9.752;2023-07-22T13:00:20;7.50;;;5.33;;
5539;SDS011;2792;52.452;9.752;2023-07-22T13:02:46;6.30;;;4.80;;
5539;SDS011;2792;52.452;9.752;2023-07-22T13:05:13;5.87;;;4.37;;
5539;SDS011;2792;52.452;9.752;2023-07-22T13:07:41;5.80;;;4.87;;
5539;SDS011;2792;52.452;9.752;2023-07-22T13:10:09;6.53;;;4.83;;
5539;SDS011;2792;52.452;9.752;2023-07-22T13:12:40;5.73;;;4.47;;
5539;SDS011;2792;52.452;9.752;2023-07-22T13:15:06;7.27;;;5.03;;
5539;SDS011;2792;52.452;9.752;2023-07-22T13:17:33;7.87;;;4.73;;
5539;SDS011;2792;52.452;9.752;2023-07-22T13:20:00;8.57;;;5.77;;
5539;SDS011;2792;52.452;9.752;2023-07-22T13:22:28;8.27;;;5.10;;
5539;SDS011;2792;52.452;9.752;2023-07-22T13:24:56;7.83;;;5.53;;
5539;SDS011;2792;52.452;9.752;2023-07-22T13:27:22;7.03;;;5.53;;
5539;SDS011;2792;52.452;9.752;2023-07-22T13:29:49;9.23;;;5.00;;
5539;SDS011;2792;52.452;9.752;2023-07-22T13:32:15;6.57;;;5.43;;
5539;SDS011;2792;52.452;9.752;2023-07-22T13:34:42;6.23;;;4.70;;
5539;SDS011;2792;52.452;9.752;2023-07-22T13:37:08;8.30;;;5.00;;
5539;SDS011;2792;52.452;9.752;2023-07-22T13:39:35;6.77;;;5.23;;
5539;SDS011;2792;52.452;9.752;2023-07-22T13:42:03;9.17;;;5.00;;
5539;SDS011;2792;52.452;9.752;2023-07-22T13:44:30;6.27;;;4.80;;
5539;SDS011;2792;52.452;9.752;2023-07-22T13:46:56;9.97;;;4.70;;
5539;SDS011;2792;52.452;9.752;2023-07-22T13:49:23;7.43;;;5.23;;
5539;SDS011;2792;52.452;9.752;2023-07-22T13:51:50;6.47;;;5.07;;
5539;SDS011;2792;52.452;9.752;2023-07-22T13:54:16;9.20;;;4.90;;
5539;SDS011;2792;52.452;9.752;2023-07-22T13:56:44;7.07;;;5.63;;
5539;SDS011;2792;52.452;9.752;2023-07-22T13:59:13;8.10;;;5.23;;
5539;SDS011;2792;52.452;9.752;2023-07-22T14:01:40;7.83;;;5.87;;
5539;SDS011;2792;52.452;9.752;2023-07-22T14:04:06;7.90;;;5.10;;
5539;SDS011;2792;52.452;9.752;2023-07-22T14:06:33;6.80;;;5.57;;
5539;SDS011;2792;52.452;9.752;2023-07-22T14:09:00;8.57;;;5.53;;
5539;SDS011;2792;52.452;9.752;2023-07-22T14:11:26;7.83;;;5.23;;
5539;SDS011;2792;52.452;9.752;2023-07-22T14:13:53;8.10;;;5.40;;
5539;SDS011;2792;52.452;9.752;2023-07-22T14:16:21;7.30;;;5.00;;
5539;SDS011;2792;52.452;9.752;2023-07-22T14:18:47;9.80;;;5.60;;
5539;SDS011;2792;52.452;9.752;2023-07-22T14:21:14;7.00;;;5.40;;
5539;SDS011;2792;52.452;9.752;2023-07-22T14:23:40;6.00;;;4.50;;
5539;SDS011;2792;52.452;9.752;2023-07-22T14:26:08;7.33;;;5.50;;
5539;SDS011;2792;52.452;9.752;2023-07-22T14:28:35;7.20;;;5.50;;
5539;SDS011;2792;52.452;9.752;2023-07-22T14:31:02;6.87;;;5.10;;
5539;SDS011;2792;52.452;9.752;2023-07-22T14:33:30;7.43;;;4.70;;
5539;SDS011;2792;52.452;9.752;2023-07-22T14:35:57;6.87;;;4.97;;
5539;SDS011;2792;52.452;9.752;2023-07-22T14:38:23;6.60;;;4.77;;
5539;SDS011;2792;52.452;9.752;2023-07-22T14:40:49;6.80;;;5.47;;
5539;SDS011;2792;52.452;9.752;2023-07-22T14:43:16;7.40;;;5.50;;
5539;SDS011;2792;52.452;9.752;2023-07-22T14:45:43;5.33;;;4.70;;
5539;SDS011;2792;52.452;9.752;2023-07-22T14:48:09;6.83;;;6.10;;
5539;SDS011;2792;52.452;9.752;2023-07-22T14:50:37;5.50;;;4.57;;
5539;SDS011;2792;52.452;9.752;2023-07-22T14:53:03;7.30;;;4.60;;
5539;SDS011;2792;52.452;9.752;2023-07-22T14:55:30;5.77;;;5.00;;
5539;SDS011;2792;52.452;9.752;2023-07-22T14:57:56;4.97;;;4.47;;
5539;SDS011;2792;52.452;9.752;2023-07-22T15:00:23;5.90;;;4.70;;
5539;SDS011;2792;52.452;9.752;2023-07-22T15:02:49;6.30;;;4.13;;
5539;SDS011;2792;52.452;9.752;2023-07-22T15:05:16;7.50;;;5.63;;
5539;SDS011;2792;52.452;9.752;2023-07-22T15:07:44;8.80;;;5.00;;
5539;SDS011;2792;52.452;9.752;2023-07-22T15:10:10;5.80;;;4.80;;
5539;SDS011;2792;52.452;9.752;2023-07-22T15:12:37;6.97;;;5.00;;